Ringsted, Denmark
Current Conditions -  °F | °C
As of 6:20 AM on Monday 20 Oct 2014 (Local Time) from EKRK Reporting Station
Light Rain Light Rain  
Wind Chill: 55°   Ceiling: 6000
Heat Index: 55°   Visibility: 6mi
Dew Point: 54°   Wind: 13mph
Humidity: 94%   Direction: 250°WSW
Pressure: 29.62"   Gusts: NA
Location:  55.44°N, 11.79°E
Report Text: EKRK 200420Z AUTO 25011KT 9999NDV -RA FEW012/// BKN060///BKN080/// 13/12 Q1003
Loading
Personal Weather Stations






























Interactive Weather Map
Tropical Storm Tracking
New forecast layout! Learn more

10-Day Weather Forecast

Advertisements
Track Severe Weather on mobile